KTOR/TOR METAR and TAF weather

Enter ICAO airport designator
Station Type Date Time Source
KTOR METAR 2021/06/22 22:53 UTC NOAA

KTOR 222253Z AUTO 24008KT 10SM CLR 34/04 A2977 RMK AO2 SLP031 T03390039


Station Type Date Time Source
KTOR Decoded METAR 2021/06/22 22:53 UTC NOAA

TORRINGTON MUNICIPAL AIRPORT, WY, United States (KTOR) 42-03N 104-09W 1277M
Jun 22, 2021 - 06:53 PM EDT / 2021.06.22 2253 UTC
Wind: from the WSW (240 degrees) at 9 MPH (8 KT):0
Visibility: 10 mile(s):0
Sky conditions: clear
Temperature: 93.0 F (33.9 C)
Dew Point: 39.0 F (3.9 C)
Relative Humidity: 15%
Pressure (altimeter): 29.77 in. Hg (1008 hPa)
ob: KTOR 222253Z AUTO 24008KT 10SM CLR 34/04 A2977 RMK AO2 SLP031 T03390039
cycle: 23

Station Type Date Time Source
KTOR TAF UTC NOAA

Error!

Example: see airport list